sensor_id;sensor_type;location;lat;lon;timestamp;P1;durP1;ratioP1;P2;durP2;ratioP2
67757;SDS011;54562;47.620;18.786;2023-11-21T05:02:34;12.20;;;5.40;;
67757;SDS011;54562;47.620;18.786;2023-11-21T05:06:10;8.00;;;4.70;;
67757;SDS011;54562;47.620;18.786;2023-11-21T05:09:43;8.60;;;4.80;;
67757;SDS011;54562;47.620;18.786;2023-11-21T05:13:17;11.70;;;4.60;;
67757;SDS011;54562;47.620;18.786;2023-11-21T05:16:43;10.70;;;4.70;;
67757;SDS011;54562;47.620;18.786;2023-11-21T05:20:16;8.30;;;4.10;;
67757;SDS011;54562;47.620;18.786;2023-11-21T05:23:51;8.70;;;4.00;;
67757;SDS011;54562;47.620;18.786;2023-11-21T05:27:18;9.80;;;4.80;;
67757;SDS011;54562;47.620;18.786;2023-11-21T05:30:24;8.10;;;4.40;;
67757;SDS011;54562;47.620;18.786;2023-11-21T05:33:31;10.30;;;4.70;;
67757;SDS011;54562;47.620;18.786;2023-11-21T05:36:37;8.10;;;4.10;;
67757;SDS011;54562;47.620;18.786;2023-11-21T05:39:44;9.20;;;4.30;;
67757;SDS011;54562;47.620;18.786;2023-11-21T05:42:51;8.90;;;4.50;;
67757;SDS011;54562;47.620;18.786;2023-11-21T05:45:59;8.90;;;4.80;;
67757;SDS011;54562;47.620;18.786;2023-11-21T05:49:05;12.20;;;5.80;;
67757;SDS011;54562;47.620;18.786;2023-11-21T05:52:12;13.90;;;7.90;;
67757;SDS011;54562;47.620;18.786;2023-11-21T05:55:19;14.00;;;8.00;;
67757;SDS011;54562;47.620;18.786;2023-11-21T05:58:29;11.90;;;6.80;;
67757;SDS011;54562;47.620;18.786;2023-11-21T06:01:35;16.00;;;7.10;;
67757;SDS011;54562;47.620;18.786;2023-11-21T06:04:42;11.80;;;5.80;;
67757;SDS011;54562;47.620;18.786;2023-11-21T06:07:48;12.20;;;6.30;;
67757;SDS011;54562;47.620;18.786;2023-11-21T06:10:55;11.90;;;6.00;;
67757;SDS011;54562;47.620;18.786;2023-11-21T06:14:03;16.30;;;6.50;;
67757;SDS011;54562;47.620;18.786;2023-11-21T06:17:13;13.10;;;6.20;;
67757;SDS011;54562;47.620;18.786;2023-11-21T06:20:19;14.60;;;7.00;;
67757;SDS011;54562;47.620;18.786;2023-11-21T06:23:26;12.30;;;6.20;;
67757;SDS011;54562;47.620;18.786;2023-11-21T06:26:33;13.20;;;5.80;;
67757;SDS011;54562;47.620;18.786;2023-11-21T06:29:39;14.10;;;6.20;;
67757;SDS011;54562;47.620;18.786;2023-11-21T06:32:47;10.70;;;5.80;;
67757;SDS011;54562;47.620;18.786;2023-11-21T06:35:54;11.90;;;6.30;;
67757;SDS011;54562;47.620;18.786;2023-11-21T06:39:00;9.60;;;5.70;;
67757;SDS011;54562;47.620;18.786;2023-11-21T06:42:10;11.80;;;6.30;;
67757;SDS011;54562;47.620;18.786;2023-11-21T06:45:18;12.30;;;5.70;;
67757;SDS011;54562;47.620;18.786;2023-11-21T06:48:25;10.90;;;5.40;;
67757;SDS011;54562;47.620;18.786;2023-11-21T06:51:33;9.40;;;5.40;;
67757;SDS011;54562;47.620;18.786;2023-11-21T06:54:40;10.80;;;5.10;;
67757;SDS011;54562;47.620;18.786;2023-11-21T06:57:46;8.40;;;5.20;;
67757;SDS011;54562;47.620;18.786;2023-11-21T07:00:53;10.10;;;5.50;;
67757;SDS011;54562;47.620;18.786;2023-11-21T07:04:01;10.60;;;5.30;;
67757;SDS011;54562;47.620;18.786;2023-11-21T07:07:08;10.80;;;5.20;;
67757;SDS011;54562;47.620;18.786;2023-11-21T07:10:15;10.40;;;5.40;;
67757;SDS011;54562;47.620;18.786;2023-11-21T07:13:23;12.60;;;5.50;;
67757;SDS011;54562;47.620;18.786;2023-11-21T07:16:29;11.00;;;5.80;;
67757;SDS011;54562;47.620;18.786;2023-11-21T07:19:38;10.20;;;5.10;;
67757;SDS011;54562;47.620;18.786;2023-11-21T07:22:45;11.10;;;5.10;;
67757;SDS011;54562;47.620;18.786;2023-11-21T07:25:52;10.00;;;5.30;;
67757;SDS011;54562;47.620;18.786;2023-11-21T07:28:59;13.60;;;6.90;;
67757;SDS011;54562;47.620;18.786;2023-11-21T07:32:06;11.50;;;6.80;;
67757;SDS011;54562;47.620;18.786;2023-11-21T07:35:13;13.10;;;6.60;;
67757;SDS011;54562;47.620;18.786;2023-11-21T07:38:21;11.00;;;5.40;;
67757;SDS011;54562;47.620;18.786;2023-11-21T07:41:28;9.00;;;4.90;;
67757;SDS011;54562;47.620;18.786;2023-11-21T07:44:35;11.20;;;5.10;;
67757;SDS011;54562;47.620;18.786;2023-11-21T07:47:42;10.00;;;4.80;;
67757;SDS011;54562;47.620;18.786;2023-11-21T07:50:48;10.10;;;5.20;;
67757;SDS011;54562;47.620;18.786;2023-11-21T07:53:55;11.30;;;5.80;;
67757;SDS011;54562;47.620;18.786;2023-11-21T07:57:01;10.50;;;5.30;;
67757;SDS011;54562;47.620;18.786;2023-11-21T08:00:10;13.30;;;6.10;;
67757;SDS011;54562;47.620;18.786;2023-11-21T08:03:18;12.30;;;5.00;;
67757;SDS011;54562;47.620;18.786;2023-11-21T08:06:25;10.70;;;5.60;;
67757;SDS011;54562;47.620;18.786;2023-11-21T08:09:32;11.50;;;5.00;;
67757;SDS011;54562;47.620;18.786;2023-11-21T08:12:38;11.80;;;4.90;;
67757;SDS011;54562;47.620;18.786;2023-11-21T08:15:47;9.50;;;4.70;;
67757;SDS011;54562;47.620;18.786;2023-11-21T08:18:54;11.40;;;5.60;;
67757;SDS011;54562;47.620;18.786;2023-11-21T08:22:00;9.80;;;5.40;;
67757;SDS011;54562;47.620;18.786;2023-11-21T08:25:08;11.40;;;5.80;;
67757;SDS011;54562;47.620;18.786;2023-11-21T08:28:16;10.70;;;4.90;;
67757;SDS011;54562;47.620;18.786;2023-11-21T08:31:26;9.90;;;4.90;;
67757;SDS011;54562;47.620;18.786;2023-11-21T08:34:33;9.40;;;5.10;;
67757;SDS011;54562;47.620;18.786;2023-11-21T08:37:40;10.00;;;4.90;;
67757;SDS011;54562;47.620;18.786;2023-11-21T08:40:47;10.10;;;5.30;;
67757;SDS011;54562;47.620;18.786;2023-11-21T08:43:53;9.40;;;4.70;;
67757;SDS011;54562;47.620;18.786;2023-11-21T08:47:02;10.90;;;4.90;;
67757;SDS011;54562;47.620;18.786;2023-11-21T08:50:10;9.20;;;5.00;;
67757;SDS011;54562;47.620;18.786;2023-11-21T08:53:19;10.20;;;5.40;;
67757;SDS011;54562;47.620;18.786;2023-11-21T08:56:29;10.70;;;5.20;;
67757;SDS011;54562;47.620;18.786;2023-11-21T08:59:36;9.90;;;6.10;;
67757;SDS011;54562;47.620;18.786;2023-11-21T09:02:42;12.30;;;6.70;;
67757;SDS011;54562;47.620;18.786;2023-11-21T09:05:49;12.60;;;6.10;;
67757;SDS011;54562;47.620;18.786;2023-11-21T09:08:56;10.40;;;5.60;;
67757;SDS011;54562;47.620;18.786;2023-11-21T09:12:03;10.70;;;6.30;;
67757;SDS011;54562;47.620;18.786;2023-11-21T09:15:10;13.10;;;7.30;;
67757;SDS011;54562;47.620;18.786;2023-11-21T09:18:19;13.40;;;7.90;;
67757;SDS011;54562;47.620;18.786;2023-11-21T09:21:25;11.80;;;6.40;;
67757;SDS011;54562;47.620;18.786;2023-11-21T09:24:32;12.80;;;6.30;;
67757;SDS011;54562;47.620;18.786;2023-11-21T09:27:40;11.00;;;6.40;;
67757;SDS011;54562;47.620;18.786;2023-11-21T09:30:49;11.60;;;6.50;;
67757;SDS011;54562;47.620;18.786;2023-11-21T09:33:56;10.10;;;6.30;;
67757;SDS011;54562;47.620;18.786;2023-11-21T09:37:02;13.50;;;6.30;;
67757;SDS011;54562;47.620;18.786;2023-11-21T09:40:10;11.40;;;6.00;;
67757;SDS011;54562;47.620;18.786;2023-11-21T09:43:17;14.90;;;6.70;;
67757;SDS011;54562;47.620;18.786;2023-11-21T09:46:25;14.00;;;6.90;;
67757;SDS011;54562;47.620;18.786;2023-11-21T09:49:35;11.20;;;6.50;;
67757;SDS011;54562;47.620;18.786;2023-11-21T09:52:44;11.60;;;6.70;;
67757;SDS011;54562;47.620;18.786;2023-11-21T09:55:58;11.30;;;6.60;;
67757;SDS011;54562;47.620;18.786;2023-11-21T09:59:05;12.20;;;6.20;;
67757;SDS011;54562;47.620;18.786;2023-11-21T10:02:13;11.50;;;6.50;;
67757;SDS011;54562;47.620;18.786;2023-11-21T10:05:21;12.60;;;7.40;;
67757;SDS011;54562;47.620;18.786;2023-11-21T10:08:31;11.60;;;6.70;;
67757;SDS011;54562;47.620;18.786;2023-11-21T10:11:52;12.20;;;6.50;;
67757;SDS011;54562;47.620;18.786;2023-11-21T10:15:00;12.90;;;6.10;;
67757;SDS011;54562;47.620;18.786;2023-11-21T10:18:09;11.80;;;6.10;;
67757;SDS011;54562;47.620;18.786;2023-11-21T10:21:18;9.00;;;5.60;;
67757;SDS011;54562;47.620;18.786;2023-11-21T10:24:24;13.20;;;5.10;;
67757;SDS011;54562;47.620;18.786;2023-11-21T10:27:46;17.30;;;6.10;;
67757;SDS011;54562;47.620;18.786;2023-11-21T10:30:54;18.40;;;5.70;;
67757;SDS011;54562;47.620;18.786;2023-11-21T10:34:13;10.10;;;5.20;;
67757;SDS011;54562;47.620;18.786;2023-11-21T10:37:20;10.70;;;5.30;;
67757;SDS011;54562;47.620;18.786;2023-11-21T10:40:28;10.00;;;5.60;;
67757;SDS011;54562;47.620;18.786;2023-11-21T10:43:34;10.70;;;5.70;;
67757;SDS011;54562;47.620;18.786;2023-11-21T10:46:41;10.40;;;5.80;;
67757;SDS011;54562;47.620;18.786;2023-11-21T10:49:49;13.10;;;5.60;;
67757;SDS011;54562;47.620;18.786;2023-11-21T10:52:56;9.40;;;4.80;;
67757;SDS011;54562;47.620;18.786;2023-11-21T10:56:03;10.90;;;5.00;;
67757;SDS011;54562;47.620;18.786;2023-11-21T10:59:13;7.10;;;3.90;;
67757;SDS011;54562;47.620;18.786;2023-11-21T11:02:21;9.30;;;4.40;;
67757;SDS011;54562;47.620;18.786;2023-11-21T11:05:32;10.40;;;4.70;;
67757;SDS011;54562;47.620;18.786;2023-11-21T11:08:39;7.60;;;3.90;;
67757;SDS011;54562;47.620;18.786;2023-11-21T11:11:46;9.30;;;3.80;;
67757;SDS011;54562;47.620;18.786;2023-11-21T11:14:52;8.10;;;3.70;;
67757;SDS011;54562;47.620;18.786;2023-11-21T11:17:59;7.70;;;3.60;;
67757;SDS011;54562;47.620;18.786;2023-11-21T11:21:11;10.10;;;3.70;;
67757;SDS011;54562;47.620;18.786;2023-11-21T11:24:33;8.70;;;3.70;;
67757;SDS011;54562;47.620;18.786;2023-11-21T11:27:47;8.30;;;3.60;;
67757;SDS011;54562;47.620;18.786;2023-11-21T11:31:00;12.90;;;4.20;;
67757;SDS011;54562;47.620;18.786;2023-11-21T11:34:11;9.30;;;4.10;;
67757;SDS011;54562;47.620;18.786;2023-11-21T11:37:24;10.80;;;4.10;;
67757;SDS011;54562;47.620;18.786;2023-11-21T11:40:39;8.30;;;3.90;;
67757;SDS011;54562;47.620;18.786;2023-11-21T11:43:46;10.30;;;3.80;;
67757;SDS011;54562;47.620;18.786;2023-11-21T11:46:53;9.30;;;3.30;;
67757;SDS011;54562;47.620;18.786;2023-11-21T11:50:00;7.60;;;3.20;;
67757;SDS011;54562;47.620;18.786;2023-11-21T11:53:14;10.50;;;3.40;;
67757;SDS011;54562;47.620;18.786;2023-11-21T11:56:23;8.10;;;3.40;;
67757;SDS011;54562;47.620;18.786;2023-11-21T11:59:38;7.50;;;3.30;;
67757;SDS011;54562;47.620;18.786;2023-11-21T12:03:24;8.40;;;3.50;;
67757;SDS011;54562;47.620;18.786;2023-11-21T12:06:34;9.10;;;3.80;;
67757;SDS011;54562;47.620;18.786;2023-11-21T12:09:40;8.60;;;3.90;;
67757;SDS011;54562;47.620;18.786;2023-11-21T12:12:48;9.10;;;4.00;;
67757;SDS011;54562;47.620;18.786;2023-11-21T12:15:57;8.20;;;3.60;;
67757;SDS011;54562;47.620;18.786;2023-11-21T12:19:03;7.90;;;4.00;;
67757;SDS011;54562;47.620;18.786;2023-11-21T12:22:09;8.40;;;4.30;;
67757;SDS011;54562;47.620;18.786;2023-11-21T12:25:16;9.30;;;4.10;;
67757;SDS011;54562;47.620;18.786;2023-11-21T12:28:24;9.10;;;4.20;;
67757;SDS011;54562;47.620;18.786;2023-11-21T12:31:31;9.40;;;4.70;;
67757;SDS011;54562;47.620;18.786;2023-11-21T12:34:37;10.80;;;4.90;;
67757;SDS011;54562;47.620;18.786;2023-11-21T12:37:44;11.10;;;5.10;;
67757;SDS011;54562;47.620;18.786;2023-11-21T12:40:51;12.50;;;5.60;;
67757;SDS011;54562;47.620;18.786;2023-11-21T12:44:01;12.20;;;5.10;;
67757;SDS011;54562;47.620;18.786;2023-11-21T12:47:07;12.60;;;5.60;;
67757;SDS011;54562;47.620;18.786;2023-11-21T12:50:19;13.80;;;6.10;;
67757;SDS011;54562;47.620;18.786;2023-11-21T12:53:26;14.60;;;6.90;;
67757;SDS011;54562;47.620;18.786;2023-11-21T12:56:40;15.50;;;7.10;;
67757;SDS011;54562;47.620;18.786;2023-11-21T12:59:50;13.20;;;7.50;;
67757;SDS011;54562;47.620;18.786;2023-11-21T13:03:00;15.60;;;8.00;;
67757;SDS011;54562;47.620;18.786;2023-11-21T13:06:07;13.60;;;7.50;;
67757;SDS011;54562;47.620;18.786;2023-11-21T13:09:15;16.80;;;8.20;;
67757;SDS011;54562;47.620;18.786;2023-11-21T13:12:25;17.10;;;8.30;;
67757;SDS011;54562;47.620;18.786;2023-11-21T13:15:31;15.00;;;8.00;;
67757;SDS011;54562;47.620;18.786;2023-11-21T13:18:40;15.30;;;8.30;;
67757;SDS011;54562;47.620;18.786;2023-11-21T13:21:47;16.40;;;7.80;;
67757;SDS011;54562;47.620;18.786;2023-11-21T13:24:54;12.50;;;7.40;;
67757;SDS011;54562;47.620;18.786;2023-11-21T13:28:00;13.80;;;7.00;;
67757;SDS011;54562;47.620;18.786;2023-11-21T13:31:07;15.30;;;6.60;;
67757;SDS011;54562;47.620;18.786;2023-11-21T13:34:25;13.10;;;6.70;;
67757;SDS011;54562;47.620;18.786;2023-11-21T13:37:36;12.60;;;6.00;;
67757;SDS011;54562;47.620;18.786;2023-11-21T13:40:46;12.90;;;6.10;;
67757;SDS011;54562;47.620;18.786;2023-11-21T13:43:56;13.70;;;6.40;;
67757;SDS011;54562;47.620;18.786;2023-11-21T13:47:12;14.40;;;6.60;;
67757;SDS011;54562;47.620;18.786;2023-11-21T13:50:18;11.50;;;6.10;;
67757;SDS011;54562;47.620;18.786;2023-11-21T13:53:29;13.90;;;6.40;;
67757;SDS011;54562;47.620;18.786;2023-11-21T13:56:40;14.00;;;6.20;;
67757;SDS011;54562;47.620;18.786;2023-11-21T13:59:48;11.40;;;6.10;;
67757;SDS011;54562;47.620;18.786;2023-11-21T14:02:55;14.60;;;6.20;;
67757;SDS011;54562;47.620;18.786;2023-11-21T14:06:05;11.30;;;6.10;;
67757;SDS011;54562;47.620;18.786;2023-11-21T14:09:18;10.50;;;5.90;;
67757;SDS011;54562;47.620;18.786;2023-11-21T14:12:28;12.30;;;6.00;;
67757;SDS011;54562;47.620;18.786;2023-11-21T14:15:41;12.80;;;6.40;;
67757;SDS011;54562;47.620;18.786;2023-11-21T14:18:49;14.80;;;6.10;;
67757;SDS011;54562;47.620;18.786;2023-11-21T14:22:02;14.50;;;6.30;;
67757;SDS011;54562;47.620;18.786;2023-11-21T14:25:11;12.00;;;6.20;;
67757;SDS011;54562;47.620;18.786;2023-11-21T14:28:19;12.70;;;6.60;;
67757;SDS011;54562;47.620;18.786;2023-11-21T14:31:26;14.30;;;6.70;;
67757;SDS011;54562;47.620;18.786;2023-11-21T14:34:34;15.20;;;7.10;;
67757;SDS011;54562;47.620;18.786;2023-11-21T14:37:41;18.90;;;7.80;;
67757;SDS011;54562;47.620;18.786;2023-11-21T14:40:51;14.30;;;7.00;;
67757;SDS011;54562;47.620;18.786;2023-11-21T14:43:57;14.00;;;7.00;;
67757;SDS011;54562;47.620;18.786;2023-11-21T14:47:06;13.20;;;6.50;;
67757;SDS011;54562;47.620;18.786;2023-11-21T14:50:19;11.70;;;6.60;;
67757;SDS011;54562;47.620;18.786;2023-11-21T14:53:51;14.80;;;6.80;;
67757;SDS011;54562;47.620;18.786;2023-11-21T14:56:58;12.80;;;6.50;;
67757;SDS011;54562;47.620;18.786;2023-11-21T15:00:05;10.30;;;6.10;;
67757;SDS011;54562;47.620;18.786;2023-11-21T15:03:33;12.60;;;7.30;;
67757;SDS011;54562;47.620;18.786;2023-11-21T15:06:53;16.60;;;8.10;;
67757;SDS011;54562;47.620;18.786;2023-11-21T15:10:01;16.20;;;8.10;;
67757;SDS011;54562;47.620;18.786;2023-11-21T15:13:14;14.20;;;6.80;;
67757;SDS011;54562;47.620;18.786;2023-11-21T15:16:20;13.50;;;7.10;;
67757;SDS011;54562;47.620;18.786;2023-11-21T15:19:27;12.50;;;6.80;;
67757;SDS011;54562;47.620;18.786;2023-11-21T15:22:35;15.60;;;7.70;;
67757;SDS011;54562;47.620;18.786;2023-11-21T15:25:43;13.10;;;7.00;;
67757;SDS011;54562;47.620;18.786;2023-11-21T15:28:49;12.40;;;6.80;;
67757;SDS011;54562;47.620;18.786;2023-11-21T15:31:56;16.60;;;6.70;;
67757;SDS011;54562;47.620;18.786;2023-11-21T15:35:04;13.30;;;7.20;;
67757;SDS011;54562;47.620;18.786;2023-11-21T15:38:15;13.20;;;7.00;;
67757;SDS011;54562;47.620;18.786;2023-11-21T15:41:23;12.00;;;6.90;;
67757;SDS011;54562;47.620;18.786;2023-11-21T15:44:29;14.00;;;7.00;;
67757;SDS011;54562;47.620;18.786;2023-11-21T15:47:37;12.30;;;6.80;;
67757;SDS011;54562;47.620;18.786;2023-11-21T15:50:43;12.70;;;7.10;;
67757;SDS011;54562;47.620;18.786;2023-11-21T15:53:50;13.00;;;6.80;;
67757;SDS011;54562;47.620;18.786;2023-11-21T15:56:56;13.20;;;7.40;;
67757;SDS011;54562;47.620;18.786;2023-11-21T16:00:04;12.70;;;7.10;;
67757;SDS011;54562;47.620;18.786;2023-11-21T16:03:19;13.30;;;7.60;;
67757;SDS011;54562;47.620;18.786;2023-11-21T16:06:27;14.00;;;8.00;;
67757;SDS011;54562;47.620;18.786;2023-11-21T16:09:34;13.20;;;7.70;;
67757;SDS011;54562;47.620;18.786;2023-11-21T16:12:45;14.70;;;8.70;;
67757;SDS011;54562;47.620;18.786;2023-11-21T16:15:52;16.90;;;9.60;;
67757;SDS011;54562;47.620;18.786;2023-11-21T16:18:58;15.40;;;8.80;;
67757;SDS011;54562;47.620;18.786;2023-11-21T16:22:06;19.50;;;10.00;;
67757;SDS011;54562;47.620;18.786;2023-11-21T16:25:12;16.10;;;9.30;;
67757;SDS011;54562;47.620;18.786;2023-11-21T16:28:18;17.30;;;9.10;;
67757;SDS011;54562;47.620;18.786;2023-11-21T16:31:25;20.30;;;9.40;;
67757;SDS011;54562;47.620;18.786;2023-11-21T16:34:31;15.10;;;8.30;;
67757;SDS011;54562;47.620;18.786;2023-11-21T16:37:39;15.90;;;8.50;;
67757;SDS011;54562;47.620;18.786;2023-11-21T16:40:46;16.40;;;8.50;;
67757;SDS011;54562;47.620;18.786;2023-11-21T16:43:53;16.10;;;9.20;;
67757;SDS011;54562;47.620;18.786;2023-11-21T16:47:00;17.80;;;9.20;;
67757;SDS011;54562;47.620;18.786;2023-11-21T16:50:09;14.90;;;9.00;;
67757;SDS011;54562;47.620;18.786;2023-11-21T16:53:15;14.60;;;8.10;;
67757;SDS011;54562;47.620;18.786;2023-11-21T16:56:21;16.10;;;8.80;;
67757;SDS011;54562;47.620;18.786;2023-11-21T16:59:28;17.60;;;8.80;;
67757;SDS011;54562;47.620;18.786;2023-11-21T17:02:35;14.80;;;8.10;;
67757;SDS011;54562;47.620;18.786;2023-11-21T17:05:41;18.20;;;8.70;;
67757;SDS011;54562;47.620;18.786;2023-11-21T17:08:50;14.40;;;8.50;;
67757;SDS011;54562;47.620;18.786;2023-11-21T17:11:58;16.10;;;9.10;;
67757;SDS011;54562;47.620;18.786;2023-11-21T17:15:08;15.60;;;8.90;;
67757;SDS011;54562;47.620;18.786;2023-11-21T17:18:16;18.50;;;9.90;;
67757;SDS011;54562;47.620;18.786;2023-11-21T17:21:22;18.30;;;9.70;;
67757;SDS011;54562;47.620;18.786;2023-11-21T17:24:37;17.60;;;10.10;;
67757;SDS011;54562;47.620;18.786;2023-11-21T17:27:45;18.90;;;10.30;;
67757;SDS011;54562;47.620;18.786;2023-11-21T17:30:52;16.70;;;10.10;;
67757;SDS011;54562;47.620;18.786;2023-11-21T17:33:59;19.60;;;10.90;;
67757;SDS011;54562;47.620;18.786;2023-11-21T17:37:05;19.60;;;11.30;;
67757;SDS011;54562;47.620;18.786;2023-11-21T17:40:12;20.60;;;10.90;;
67757;SDS011;54562;47.620;18.786;2023-11-21T17:43:19;20.10;;;10.60;;
67757;SDS011;54562;47.620;18.786;2023-11-21T17:46:25;22.60;;;12.20;;
67757;SDS011;54562;47.620;18.786;2023-11-21T17:49:32;20.50;;;11.50;;
67757;SDS011;54562;47.620;18.786;2023-11-21T17:52:38;17.50;;;10.70;;
67757;SDS011;54562;47.620;18.786;2023-11-21T17:55:47;19.00;;;11.10;;
67757;SDS011;54562;47.620;18.786;2023-11-21T17:58:54;17.60;;;10.80;;
67757;SDS011;54562;47.620;18.786;2023-11-21T18:02:01;20.90;;;10.20;;
67757;SDS011;54562;47.620;18.786;2023-11-21T18:05:09;15.80;;;9.80;;
67757;SDS011;54562;47.620;18.786;2023-11-21T18:08:16;20.60;;;11.20;;
67757;SDS011;54562;47.620;18.786;2023-11-21T18:11:24;17.90;;;10.20;;
67757;SDS011;54562;47.620;18.786;2023-11-21T18:14:32;19.80;;;10.80;;
67757;SDS011;54562;47.620;18.786;2023-11-21T18:17:39;21.00;;;10.90;;
67757;SDS011;54562;47.620;18.786;2023-11-21T18:20:46;18.20;;;10.80;;
67757;SDS011;54562;47.620;18.786;2023-11-21T18:23:53;19.00;;;11.10;;
67757;SDS011;54562;47.620;18.786;2023-11-21T18:27:01;18.80;;;11.40;;
67757;SDS011;54562;47.620;18.786;2023-11-21T18:30:10;18.90;;;11.90;;
67757;SDS011;54562;47.620;18.786;2023-11-21T18:33:17;18.40;;;11.20;;
67757;SDS011;54562;47.620;18.786;2023-11-21T18:36:24;18.10;;;10.80;;
67757;SDS011;54562;47.620;18.786;2023-11-21T18:39:30;19.30;;;11.50;;
67757;SDS011;54562;47.620;18.786;2023-11-21T18:42:38;20.50;;;11.20;;
67757;SDS011;54562;47.620;18.786;2023-11-21T18:45:48;18.90;;;11.10;;
67757;SDS011;54562;47.620;18.786;2023-11-21T18:48:54;20.70;;;10.60;;
67757;SDS011;54562;47.620;18.786;2023-11-21T18:52:01;19.60;;;11.60;;
67757;SDS011;54562;47.620;18.786;2023-11-21T18:55:08;20.30;;;11.70;;
67757;SDS011;54562;47.620;18.786;2023-11-21T18:58:15;22.90;;;12.40;;
67757;SDS011;54562;47.620;18.786;2023-11-21T19:01:26;23.30;;;11.60;;
67757;SDS011;54562;47.620;18.786;2023-11-21T19:04:33;20.30;;;11.90;;
67757;SDS011;54562;47.620;18.786;2023-11-21T19:07:44;21.30;;;11.10;;
67757;SDS011;54562;47.620;18.786;2023-11-21T19:10:50;22.30;;;12.50;;
67757;SDS011;54562;47.620;18.786;2023-11-21T19:13:58;23.00;;;11.60;;
67757;SDS011;54562;47.620;18.786;2023-11-21T19:17:05;18.80;;;11.60;;
67757;SDS011;54562;47.620;18.786;2023-11-21T19:20:18;19.40;;;12.00;;
67757;SDS011;54562;47.620;18.786;2023-11-21T19:23:26;19.80;;;10.80;;
67757;SDS011;54562;47.620;18.786;2023-11-21T19:26:32;18.10;;;11.50;;
67757;SDS011;54562;47.620;18.786;2023-11-21T19:29:39;20.10;;;11.20;;
67757;SDS011;54562;47.620;18.786;2023-11-21T19:32:45;19.80;;;11.40;;
67757;SDS011;54562;47.620;18.786;2023-11-21T19:35:52;18.40;;;10.50;;
67757;SDS011;54562;47.620;18.786;2023-11-21T19:38:58;17.60;;;11.20;;
67757;SDS011;54562;47.620;18.786;2023-11-21T19:42:05;21.40;;;11.70;;
67757;SDS011;54562;47.620;18.786;2023-11-21T19:45:12;17.90;;;10.40;;
67757;SDS011;54562;47.620;18.786;2023-11-21T19:48:19;17.90;;;10.50;;
67757;SDS011;54562;47.620;18.786;2023-11-21T19:54:34;25.20;;;11.60;;
67757;SDS011;54562;47.620;18.786;2023-11-21T19:57:41;18.30;;;11.30;;
67757;SDS011;54562;47.620;18.786;2023-11-21T20:00:49;18.80;;;10.80;;
67757;SDS011;54562;47.620;18.786;2023-11-21T20:03:57;21.50;;;11.30;;
67757;SDS011;54562;47.620;18.786;2023-11-21T20:07:03;19.40;;;12.20;;
67757;SDS011;54562;47.620;18.786;2023-11-21T20:10:10;18.80;;;11.10;;
67757;SDS011;54562;47.620;18.786;2023-11-21T20:13:18;21.30;;;11.60;;
67757;SDS011;54562;47.620;18.786;2023-11-21T20:16:26;20.90;;;12.10;;
67757;SDS011;54562;47.620;18.786;2023-11-21T20:19:32;21.70;;;12.30;;
67757;SDS011;54562;47.620;18.786;2023-11-21T20:22:39;19.80;;;11.80;;
67757;SDS011;54562;47.620;18.786;2023-11-21T20:25:45;22.80;;;13.00;;
67757;SDS011;54562;47.620;18.786;2023-11-21T20:28:53;21.30;;;12.50;;
67757;SDS011;54562;47.620;18.786;2023-11-21T20:32:00;21.40;;;12.80;;
67757;SDS011;54562;47.620;18.786;2023-11-21T20:35:08;20.20;;;12.40;;
67757;SDS011;54562;47.620;18.786;2023-11-21T20:38:16;21.70;;;12.80;;
67757;SDS011;54562;47.620;18.786;2023-11-21T20:41:24;23.80;;;14.00;;
67757;SDS011;54562;47.620;18.786;2023-11-21T20:44:31;22.30;;;13.10;;
67757;SDS011;54562;47.620;18.786;2023-11-21T20:47:39;23.30;;;13.10;;
67757;SDS011;54562;47.620;18.786;2023-11-21T20:50:46;21.10;;;12.80;;
67757;SDS011;54562;47.620;18.786;2023-11-21T20:53:53;24.10;;;13.40;;
67757;SDS011;54562;47.620;18.786;2023-11-21T20:56:59;21.70;;;13.20;;
67757;SDS011;54562;47.620;18.786;2023-11-21T21:00:07;23.00;;;13.40;;
67757;SDS011;54562;47.620;18.786;2023-11-21T21:03:17;21.30;;;12.70;;
67757;SDS011;54562;47.620;18.786;2023-11-21T21:06:23;20.90;;;13.10;;
67757;SDS011;54562;47.620;18.786;2023-11-21T21:09:31;23.90;;;13.70;;
67757;SDS011;54562;47.620;18.786;2023-11-21T21:12:40;22.60;;;13.70;;
67757;SDS011;54562;47.620;18.786;2023-11-21T21:15:48;25.10;;;13.50;;
67757;SDS011;54562;47.620;18.786;2023-11-21T21:18:54;26.10;;;14.90;;
67757;SDS011;54562;47.620;18.786;2023-11-21T21:22:02;25.90;;;14.10;;
67757;SDS011;54562;47.620;18.786;2023-11-21T21:25:11;27.30;;;14.40;;
67757;SDS011;54562;47.620;18.786;2023-11-21T21:28:17;28.30;;;15.20;;
67757;SDS011;54562;47.620;18.786;2023-11-21T21:31:24;43.40;;;14.60;;
67757;SDS011;54562;47.620;18.786;2023-11-21T21:34:31;62.00;;;15.10;;
67757;SDS011;54562;47.620;18.786;2023-11-21T21:37:38;34.50;;;14.90;;
67757;SDS011;54562;47.620;18.786;2023-11-21T21:40:46;139.20;;;16.60;;
67757;SDS011;54562;47.620;18.786;2023-11-21T21:43:55;127.10;;;16.10;;
67757;SDS011;54562;47.620;18.786;2023-11-21T21:47:01;86.70;;;15.60;;
67757;SDS011;54562;47.620;18.786;2023-11-21T21:50:10;149.70;;;17.60;;
67757;SDS011;54562;47.620;18.786;2023-11-21T21:53:16;152.70;;;17.80;;
67757;SDS011;54562;47.620;18.786;2023-11-21T21:56:23;100.60;;;15.90;;
67757;SDS011;54562;47.620;18.786;2023-11-21T21:59:30;108.40;;;17.80;;
67757;SDS011;54562;47.620;18.786;2023-11-21T22:02:37;97.80;;;17.00;;
67757;SDS011;54562;47.620;18.786;2023-11-21T22:05:44;101.40;;;16.90;;
67757;SDS011;54562;47.620;18.786;2023-11-21T22:08:50;75.00;;;15.80;;
67757;SDS011;54562;47.620;18.786;2023-11-21T22:11:57;48.40;;;17.10;;
67757;SDS011;54562;47.620;18.786;2023-11-21T22:15:03;70.30;;;16.50;;
67757;SDS011;54562;47.620;18.786;2023-11-21T22:18:12;74.20;;;18.30;;
67757;SDS011;54562;47.620;18.786;2023-11-21T22:21:18;69.60;;;16.20;;
67757;SDS011;54562;47.620;18.786;2023-11-21T22:24:27;73.70;;;16.20;;
67757;SDS011;54562;47.620;18.786;2023-11-21T22:30:42;71.40;;;16.00;;
67757;SDS011;54562;47.620;18.786;2023-11-21T22:33:48;55.50;;;16.10;;
67757;SDS011;54562;47.620;18.786;2023-11-21T22:36:55;85.80;;;16.40;;
67757;SDS011;54562;47.620;18.786;2023-11-21T22:40:01;86.00;;;15.90;;
67757;SDS011;54562;47.620;18.786;2023-11-21T22:43:11;65.20;;;15.60;;
67757;SDS011;54562;47.620;18.786;2023-11-21T22:46:19;62.30;;;15.60;;
67757;SDS011;54562;47.620;18.786;2023-11-21T22:49:28;54.10;;;14.60;;
67757;SDS011;54562;47.620;18.786;2023-11-21T22:52:35;54.90;;;14.90;;
67757;SDS011;54562;47.620;18.786;2023-11-21T22:55:41;69.10;;;15.40;;
67757;SDS011;54562;47.620;18.786;2023-11-21T22:58:47;58.90;;;14.50;;
67757;SDS011;54562;47.620;18.786;2023-11-21T23:01:54;62.00;;;14.10;;
67757;SDS011;54562;47.620;18.786;2023-11-21T23:05:01;76.40;;;15.60;;
67757;SDS011;54562;47.620;18.786;2023-11-21T23:08:10;48.90;;;14.30;;
67757;SDS011;54562;47.620;18.786;2023-11-21T23:11:16;50.20;;;13.30;;
67757;SDS011;54562;47.620;18.786;2023-11-21T23:14:24;46.40;;;13.30;;
67757;SDS011;54562;47.620;18.786;2023-11-21T23:17:31;55.20;;;12.40;;
67757;SDS011;54562;47.620;18.786;2023-11-21T23:20:37;42.20;;;11.80;;
67757;SDS011;54562;47.620;18.786;2023-11-21T23:23:44;37.50;;;11.40;;
67757;SDS011;54562;47.620;18.786;2023-11-21T23:26:50;47.00;;;12.70;;